Portada
METAR-TAF:

METAR-TAF

Aeroports :

Montpeller, França

latitud: 43-35N, longitud: 003-58E, altitud: 5 m

Observació

L'informe es va fer fa 44 minuts, a les 17:30 UTC
Vent 2 kt del Oest
Temperatura 21°C
Humitat 64%
Pressió 1018 hPa
Visibilitat 10 km o més
sense núvols per sota de 1500 mi sense presència de cumulonimbus.

METAR: LFMT 191730Z AUTO 27002KT CAVOK 21/14 Q1018 NOSIG

Hora: 20:14 (18:14 UTC)

Pronòstic

L'informe es va fer fa 4 hores i 14 minuts, a les 14:00 UTC
Pronòstic vàlid del 19 a les 15 UTC al 20 a les 15 UTC
Vent 6 kt del Nord/Nord-Est
Visibilitat 10 km o més
sense núvols per sota de 1500 mi sense presència de cumulonimbus.
Temporalment
l' 19 a les 15 UTC al 19 a les 18 UTC
Vent 5 kt del Sud
Probabilitat 30% :
Temporalment
l' 20 a les 03 UTC al 20 a les 08 UTC
Visibilitat: 3000 m
Cel ennuvolat a una alçada de 1000 ft
boirina

TAF: LFMT 191400Z 1915/2015 02006KT CAVOK TEMPO 1915/1918 18005KT PROB30 TEMPO 2003/2008 3000 BR BKN010

Observacions i pronòstics meteorològics de més de 4000 aeroports (METAR i TAF).

Les estacions disponibles són els punts grocs i vermells al mapa.

Posi el ratolí al punt desitjat per veure el nom de l'estació.

Feu clic per veure les observacions i els pronòstics meteorològics.

Per canviar el mapa: feu clic els botons verds amb una creu de color negre per apropar; al botó verd amb un guió per allunyar la imatge; o en les fletxes verdes per a mapes adjacents.


METAR-TAF: